createdAt,value
2019-04-04T00:00:57.102Z,983.20
2019-04-04T00:01:57.132Z,983.20
2019-04-04T00:02:57.085Z,983.21
2019-04-04T00:03:57.079Z,983.23
2019-04-04T00:04:57.876Z,983.22
2019-04-04T00:05:57.131Z,983.21
2019-04-04T00:06:58.090Z,983.20
2019-04-04T00:07:58.108Z,983.20
2019-04-04T00:08:57.048Z,983.23
2019-04-04T00:09:57.033Z,983.21
2019-04-04T00:10:57.031Z,983.21
2019-04-04T00:11:57.023Z,983.20
2019-04-04T00:12:57.012Z,983.23
2019-04-04T00:13:57.005Z,983.23
2019-04-04T00:14:57.011Z,983.20
2019-04-04T00:15:56.992Z,983.23
2019-04-04T00:16:56.981Z,983.23
2019-04-04T00:17:56.979Z,983.25
2019-04-04T00:18:58.622Z,983.22
2019-04-04T00:19:56.965Z,983.24
2019-04-04T00:20:56.954Z,983.26
2019-04-04T00:21:56.946Z,983.32
2019-04-04T00:22:56.942Z,983.34
2019-04-04T00:23:56.933Z,983.36
2019-04-04T00:24:56.925Z,983.45
2019-04-04T00:25:56.920Z,983.45
2019-04-04T00:26:56.917Z,983.50
2019-04-04T00:27:56.905Z,983.50
2019-04-04T00:28:56.900Z,983.50
2019-04-04T00:29:56.890Z,983.52
2019-04-04T00:30:56.887Z,983.49
2019-04-04T00:31:56.875Z,983.48
2019-04-04T00:32:56.870Z,983.53
2019-04-04T00:33:56.861Z,983.57
2019-04-04T00:34:57.824Z,983.52
2019-04-04T00:35:56.850Z,983.52
2019-04-04T00:36:56.841Z,983.51
2019-04-04T00:37:56.834Z,983.52
2019-04-04T00:38:56.829Z,983.52
2019-04-04T00:39:56.819Z,983.55
2019-04-04T00:40:56.813Z,983.61
2019-04-04T00:41:56.804Z,983.63
2019-04-04T00:42:56.796Z,983.67
2019-04-04T00:43:56.793Z,983.67
2019-04-04T00:44:56.785Z,983.66
2019-04-04T00:45:56.778Z,983.64
2019-04-04T00:46:56.770Z,983.62
2019-04-04T00:47:56.767Z,983.62
2019-04-04T00:48:56.753Z,983.54
2019-04-04T00:49:56.747Z,983.57
2019-04-04T00:50:56.740Z,983.55
2019-04-04T00:51:56.733Z,983.51
2019-04-04T00:52:56.722Z,983.47
2019-04-04T00:53:56.718Z,983.46
2019-04-04T00:54:56.711Z,983.48
2019-04-04T00:55:56.705Z,983.47
2019-04-04T00:56:56.697Z,983.52
2019-04-04T00:57:56.690Z,983.56
2019-04-04T00:58:56.696Z,983.57
2019-04-04T00:59:56.679Z,983.57
2019-04-04T01:00:56.672Z,983.60
2019-04-04T01:01:56.978Z,983.61
2019-04-04T01:02:58.347Z,983.53
2019-04-04T01:03:56.648Z,983.53
2019-04-04T01:04:56.641Z,983.54
2019-04-04T01:05:56.633Z,983.54
2019-04-04T01:06:56.625Z,983.57
2019-04-04T01:07:56.619Z,983.56
2019-04-04T01:08:56.612Z,983.55
2019-04-04T01:09:56.605Z,983.52
2019-04-04T01:10:56.596Z,983.49
2019-04-04T01:11:56.590Z,983.46
2019-04-04T01:12:56.582Z,983.41
2019-04-04T01:13:57.925Z,983.38
2019-04-04T01:14:58.128Z,983.40
2019-04-04T01:15:56.561Z,983.45
2019-04-04T01:16:56.551Z,983.41
2019-04-04T01:17:56.545Z,983.43
2019-04-04T01:18:56.544Z,983.46
2019-04-04T01:19:56.532Z,983.49
2019-04-04T01:20:56.526Z,983.50
2019-04-04T01:21:56.514Z,983.49
2019-04-04T01:22:56.730Z,983.49
2019-04-04T01:23:58.410Z,983.49
2019-04-04T01:24:56.493Z,983.49
2019-04-04T01:25:56.486Z,983.53
2019-04-04T01:26:56.477Z,983.59
2019-04-04T01:27:56.474Z,983.61
2019-04-04T01:28:56.461Z,983.62
2019-04-04T01:29:56.457Z,983.66
2019-04-04T01:30:56.453Z,983.61
2019-04-04T01:31:56.440Z,983.69
2019-04-04T01:32:56.444Z,983.74
2019-04-04T01:33:56.426Z,983.74
2019-04-04T01:34:56.429Z,983.73
2019-04-04T01:35:56.409Z,983.72
2019-04-04T01:36:57.103Z,983.71
2019-04-04T01:37:58.133Z,983.74
2019-04-04T01:38:58.099Z,983.71
2019-04-04T01:39:56.382Z,983.73
2019-04-04T01:40:56.377Z,983.70
2019-04-04T01:41:56.366Z,983.67
2019-04-04T01:42:56.361Z,983.67
2019-04-04T01:44:04.771Z,983.64
2019-04-04T01:44:56.337Z,983.57
2019-04-04T01:45:56.346Z,983.51
2019-04-04T01:46:56.330Z,983.44
2019-04-04T01:47:56.347Z,983.39
2019-04-04T01:48:56.313Z,983.45
2019-04-04T01:49:56.303Z,983.51
2019-04-04T01:50:56.301Z,983.48
2019-04-04T01:51:57.817Z,983.51
2019-04-04T01:52:58.885Z,983.47
2019-04-04T01:53:56.273Z,983.45
2019-04-04T01:54:56.266Z,983.43
2019-04-04T01:55:56.261Z,983.41
2019-04-04T01:56:56.253Z,983.40
2019-04-04T01:57:56.245Z,983.36
2019-04-04T01:58:56.237Z,983.32
2019-04-04T01:59:56.229Z,983.28
2019-04-04T02:00:56.222Z,983.32
2019-04-04T02:01:56.218Z,983.34
2019-04-04T02:02:56.228Z,983.35
2019-04-04T02:03:56.204Z,983.30
2019-04-04T02:04:56.494Z,983.27
2019-04-04T02:05:58.130Z,983.23
2019-04-04T02:06:58.876Z,983.22
2019-04-04T02:07:56.170Z,983.16
2019-04-04T02:08:56.163Z,983.18
2019-04-04T02:09:56.152Z,983.18
2019-04-04T02:10:56.145Z,983.19
2019-04-04T02:11:56.145Z,983.19
2019-04-04T02:12:56.131Z,983.21
2019-04-04T02:13:56.123Z,983.19
2019-04-04T02:14:56.115Z,983.19
2019-04-04T02:15:56.114Z,983.12
2019-04-04T02:16:56.103Z,983.14
2019-04-04T02:17:56.093Z,983.07
2019-04-04T02:18:56.086Z,983.06
2019-04-04T02:19:56.450Z,983.02
2019-04-04T02:20:57.885Z,983.06
2019-04-04T02:21:56.062Z,983.02
2019-04-04T02:22:56.058Z,983.02
2019-04-04T02:23:56.046Z,983.01
2019-04-04T02:24:56.041Z,982.92
2019-04-04T02:25:56.031Z,982.90
2019-04-04T02:26:56.023Z,982.89
2019-04-04T02:27:56.017Z,982.89
2019-04-04T02:28:56.006Z,982.90
2019-04-04T02:29:56.009Z,982.88
2019-04-04T02:30:55.996Z,982.90
2019-04-04T02:31:55.987Z,982.95
2019-04-04T02:32:59.425Z,982.95
2019-04-04T02:33:55.970Z,982.97
2019-04-04T02:34:55.962Z,983.04
2019-04-04T02:35:55.956Z,983.11
2019-04-04T02:36:55.959Z,983.15
2019-04-04T02:37:56.208Z,983.26
2019-04-04T02:38:57.594Z,983.29
2019-04-04T02:39:55.928Z,983.36
2019-04-04T02:40:55.917Z,983.37
2019-04-04T02:41:55.908Z,983.37
2019-04-04T02:42:55.904Z,983.30
2019-04-04T02:43:59.361Z,983.33
2019-04-04T02:44:55.890Z,983.29
2019-04-04T02:45:55.892Z,983.29
2019-04-04T02:46:55.871Z,983.28
2019-04-04T02:47:55.869Z,983.27
2019-04-04T02:48:56.269Z,983.20
2019-04-04T02:49:55.847Z,983.20
2019-04-04T02:50:55.838Z,983.20
2019-04-04T02:51:55.836Z,983.20
2019-04-04T02:52:55.834Z,983.22
2019-04-04T02:53:55.816Z,983.24
2019-04-04T02:54:58.167Z,983.26
2019-04-04T02:55:55.841Z,983.26
2019-04-04T02:56:55.797Z,983.23
2019-04-04T02:57:55.787Z,983.16
2019-04-04T02:58:55.777Z,983.08
2019-04-04T02:59:55.776Z,982.92
2019-04-04T03:00:59.264Z,982.89
2019-04-04T03:01:55.758Z,982.82
2019-04-04T03:02:55.750Z,982.76
2019-04-04T03:03:55.739Z,982.71
2019-04-04T03:04:55.739Z,982.66
2019-04-04T03:05:55.721Z,982.71
2019-04-04T03:06:58.546Z,982.77
2019-04-04T03:07:55.717Z,982.78
2019-04-04T03:08:55.705Z,982.80
2019-04-04T03:09:55.692Z,982.77
2019-04-04T03:10:55.684Z,982.69
2019-04-04T03:11:55.676Z,982.69
2019-04-04T03:12:58.398Z,982.70
2019-04-04T03:13:55.662Z,982.72
2019-04-04T03:14:55.666Z,982.78
2019-04-04T03:15:55.645Z,982.75
2019-04-04T03:16:57.024Z,982.76
2019-04-04T03:17:55.633Z,982.68
2019-04-04T03:18:55.625Z,982.71
2019-04-04T03:19:55.617Z,982.76
2019-04-04T03:20:55.610Z,982.77
2019-04-04T03:21:56.152Z,982.82
2019-04-04T03:23:00.258Z,982.84
2019-04-04T03:23:55.589Z,982.86
2019-04-04T03:24:55.579Z,982.85
2019-04-04T03:25:55.575Z,982.86
2019-04-04T03:26:55.562Z,982.82
2019-04-04T03:27:58.201Z,982.76
2019-04-04T03:28:55.555Z,982.73
2019-04-04T03:29:55.542Z,982.69
2019-04-04T03:31:02.523Z,982.67
2019-04-04T03:31:55.523Z,982.67
2019-04-04T03:32:55.823Z,982.67
2019-04-04T03:33:55.507Z,982.64
2019-04-04T03:34:55.519Z,982.67
2019-04-04T03:35:59.880Z,982.70
2019-04-04T03:36:55.486Z,982.73
2019-04-04T03:37:55.477Z,982.73
2019-04-04T03:38:55.469Z,982.66
2019-04-04T03:39:55.459Z,982.70
2019-04-04T03:40:58.108Z,982.70
2019-04-04T03:41:55.446Z,982.66
2019-04-04T03:42:55.439Z,982.70
2019-04-04T03:43:55.437Z,982.68
2019-04-04T03:44:55.453Z,982.72
2019-04-04T03:46:00.175Z,982.72
2019-04-04T03:46:55.406Z,982.72
2019-04-04T03:47:55.403Z,982.73
2019-04-04T03:48:55.403Z,982.64
2019-04-04T03:49:57.636Z,982.64
2019-04-04T03:50:57.394Z,982.58
2019-04-04T03:51:55.387Z,982.56
2019-04-04T03:52:55.362Z,982.59
2019-04-04T03:53:55.351Z,982.56
2019-04-04T03:54:56.398Z,982.57
2019-04-04T03:56:00.167Z,982.60
2019-04-04T03:56:55.328Z,982.57
2019-04-04T03:57:55.438Z,982.58
2019-04-04T03:58:59.813Z,982.62
2019-04-04T03:59:55.310Z,982.63
2019-04-04T04:00:55.299Z,982.63
2019-04-04T04:01:55.291Z,982.57
2019-04-04T04:02:55.280Z,982.52
2019-04-04T04:03:55.697Z,982.50
2019-04-04T04:04:57.715Z,982.50
2019-04-04T04:05:55.258Z,982.48
2019-04-04T04:06:55.252Z,982.45
2019-04-04T04:07:55.252Z,982.44
2019-04-04T04:08:55.394Z,982.51
2019-04-04T04:09:59.294Z,982.57
2019-04-04T04:10:55.220Z,982.66
2019-04-04T04:11:55.217Z,982.71
2019-04-04T04:12:55.214Z,982.65
2019-04-04T04:13:55.202Z,982.67
2019-04-04T04:14:55.390Z,982.72
2019-04-04T04:15:55.179Z,982.77
2019-04-04T04:16:55.174Z,982.80
2019-04-04T04:17:55.166Z,982.77
2019-04-04T04:18:55.413Z,982.84
2019-04-04T04:19:55.152Z,982.84
2019-04-04T04:20:55.146Z,982.84
2019-04-04T04:21:55.133Z,982.84
2019-04-04T04:22:55.128Z,982.78
2019-04-04T04:23:56.920Z,982.77
2019-04-04T04:24:55.115Z,982.78
2019-04-04T04:25:55.114Z,982.76
2019-04-04T04:26:55.099Z,982.79
2019-04-04T04:27:55.187Z,982.78
2019-04-04T04:28:55.085Z,982.73
2019-04-04T04:29:55.072Z,982.70
2019-04-04T04:30:55.066Z,982.62
2019-04-04T04:31:55.058Z,982.56
2019-04-04T04:32:57.001Z,982.62
2019-04-04T04:33:55.039Z,982.64
2019-04-04T04:34:55.034Z,982.67
2019-04-04T04:35:55.033Z,982.72
2019-04-04T04:36:55.034Z,982.75
2019-04-04T04:37:55.006Z,982.74
2019-04-04T04:38:58.661Z,982.73
2019-04-04T04:39:55.006Z,982.74
2019-04-04T04:40:54.985Z,982.72
2019-04-04T04:41:54.977Z,982.74
2019-04-04T04:42:54.970Z,982.76
2019-04-04T04:43:54.965Z,982.77
2019-04-04T04:44:54.951Z,982.87
2019-04-04T04:45:54.951Z,982.85
2019-04-04T04:46:54.936Z,982.79
2019-04-04T04:47:57.087Z,982.75
2019-04-04T04:48:54.923Z,982.73
2019-04-04T04:49:55.506Z,982.70
2019-04-04T04:50:54.918Z,982.66
2019-04-04T04:51:54.898Z,982.68
2019-04-04T04:52:54.897Z,982.70
2019-04-04T04:53:54.880Z,982.70
2019-04-04T04:54:55.550Z,982.73
2019-04-04T04:55:54.867Z,982.72
2019-04-04T04:56:54.858Z,982.75
2019-04-04T04:57:56.529Z,982.71
2019-04-04T04:58:55.595Z,982.72
2019-04-04T04:59:54.838Z,982.66
2019-04-04T05:00:54.827Z,982.66
2019-04-04T05:01:54.819Z,982.59
2019-04-04T05:02:54.822Z,982.65
2019-04-04T05:03:56.488Z,982.69
2019-04-04T05:04:54.798Z,982.77
2019-04-04T05:05:54.814Z,982.79
2019-04-04T05:06:54.781Z,982.76
2019-04-04T05:07:55.137Z,982.72
2019-04-04T05:08:54.762Z,982.70
2019-04-04T05:09:54.753Z,982.72
2019-04-04T05:10:54.758Z,982.73
2019-04-04T05:11:54.755Z,982.73
2019-04-04T05:12:54.735Z,982.64
2019-04-04T05:13:56.125Z,982.57
2019-04-04T05:14:54.721Z,982.52
2019-04-04T05:15:54.706Z,982.45
2019-04-04T05:16:54.701Z,982.44
2019-04-04T05:17:54.695Z,982.41
2019-04-04T05:18:54.698Z,982.43
2019-04-04T05:19:54.676Z,982.46
2019-04-04T05:20:57.232Z,982.54
2019-04-04T05:21:54.660Z,982.59
2019-04-04T05:22:54.652Z,982.66
2019-04-04T05:23:54.648Z,982.67
2019-04-04T05:25:07.437Z,982.69
2019-04-04T05:25:54.636Z,982.74
2019-04-04T05:26:54.701Z,982.70
2019-04-04T05:27:54.618Z,982.79
2019-04-04T05:28:56.896Z,982.76
2019-04-04T05:29:54.612Z,982.82
2019-04-04T05:30:54.593Z,982.81
2019-04-04T05:31:54.594Z,982.81
2019-04-04T05:32:56.384Z,982.82
2019-04-04T05:33:54.572Z,982.79
2019-04-04T05:34:54.609Z,982.77
2019-04-04T05:35:54.574Z,982.70
2019-04-04T05:36:54.563Z,982.68
2019-04-04T05:37:54.552Z,982.63
2019-04-04T05:38:54.536Z,982.57
2019-04-04T05:39:55.436Z,982.55
2019-04-04T05:40:55.518Z,982.49
2019-04-04T05:41:54.512Z,982.51
2019-04-04T05:42:54.502Z,982.54
2019-04-04T05:43:54.497Z,982.59
2019-04-04T05:44:54.499Z,982.59
2019-04-04T05:45:54.476Z,982.64
2019-04-04T05:46:54.483Z,982.69
2019-04-04T05:47:56.313Z,982.65
2019-04-04T05:48:54.463Z,982.64
2019-04-04T05:49:54.450Z,982.63
2019-04-04T05:50:54.439Z,982.53
2019-04-04T05:51:54.432Z,982.50
2019-04-04T05:52:54.429Z,982.42
2019-04-04T05:53:54.433Z,982.43
2019-04-04T05:54:54.414Z,982.40
2019-04-04T05:55:54.398Z,982.41
2019-04-04T05:56:54.427Z,982.42
2019-04-04T05:57:54.411Z,982.43
2019-04-04T05:58:54.375Z,982.49
2019-04-04T05:59:55.975Z,982.52
2019-04-04T06:00:54.369Z,982.57
2019-04-04T06:01:54.361Z,982.62
2019-04-04T06:02:54.345Z,982.59
2019-04-04T06:03:54.340Z,982.54
2019-04-04T06:04:55.322Z,982.50
2019-04-04T06:05:54.352Z,982.47
2019-04-04T06:06:55.759Z,982.49
2019-04-04T06:07:54.308Z,982.49
2019-04-04T06:08:54.307Z,982.48
2019-04-04T06:09:54.295Z,982.48
2019-04-04T06:10:54.286Z,982.48
2019-04-04T06:11:54.457Z,982.46
2019-04-04T06:12:56.273Z,982.39
2019-04-04T06:13:54.261Z,982.36
2019-04-04T06:14:54.251Z,982.33
2019-04-04T06:15:54.248Z,982.36
2019-04-04T06:16:54.240Z,982.34
2019-04-04T06:17:54.232Z,982.37
2019-04-04T06:18:54.234Z,982.36
2019-04-04T06:19:54.217Z,982.28
2019-04-04T06:20:54.211Z,982.25
2019-04-04T06:21:54.204Z,982.24
2019-04-04T06:22:54.197Z,982.26
2019-04-04T06:23:55.946Z,982.26
2019-04-04T06:24:54.180Z,982.24
2019-04-04T06:25:54.180Z,982.21
2019-04-04T06:26:54.171Z,982.15
2019-04-04T06:27:54.205Z,982.11
2019-04-04T06:28:54.157Z,982.07
2019-04-04T06:29:54.156Z,982.08
2019-04-04T06:30:54.414Z,982.12
2019-04-04T06:31:54.161Z,982.13
2019-04-04T06:32:54.143Z,982.14
2019-04-04T06:33:54.124Z,982.18
2019-04-04T06:34:56.575Z,982.17
2019-04-04T06:35:54.105Z,982.17
2019-04-04T06:36:54.094Z,982.23
2019-04-04T06:37:54.087Z,982.23
2019-04-04T06:38:54.614Z,982.21
2019-04-04T06:39:54.416Z,982.17
2019-04-04T06:40:54.065Z,982.17
2019-04-04T06:41:54.054Z,982.16
2019-04-04T06:42:54.055Z,982.17
2019-04-04T06:43:54.040Z,982.13
2019-04-04T06:44:54.325Z,982.12
2019-04-04T06:45:54.026Z,982.09
2019-04-04T06:46:54.204Z,982.09
2019-04-04T06:47:55.276Z,982.08
2019-04-04T06:48:54.036Z,982.04
2019-04-04T06:49:54.005Z,982.09
2019-04-04T06:50:53.991Z,982.10
2019-04-04T06:51:53.982Z,982.19
2019-04-04T06:52:56.379Z,982.19
2019-04-04T06:53:54.536Z,982.16
2019-04-04T06:54:57.067Z,982.14
2019-04-04T06:55:53.955Z,982.06
2019-04-04T06:56:53.954Z,982.08
2019-04-04T06:57:53.939Z,982.07
2019-04-04T06:58:53.939Z,982.02
2019-04-04T06:59:53.939Z,981.98
2019-04-04T07:00:53.921Z,982.00
2019-04-04T07:01:53.911Z,981.90
2019-04-04T07:02:56.085Z,981.90
2019-04-04T07:03:53.894Z,981.87
2019-04-04T07:04:53.958Z,981.93
2019-04-04T07:05:53.881Z,981.92
2019-04-04T07:06:53.883Z,981.89
2019-04-04T07:07:53.871Z,981.88
2019-04-04T07:08:53.861Z,981.81
2019-04-04T07:09:53.851Z,981.82
2019-04-04T07:10:58.143Z,981.83
2019-04-04T07:11:53.838Z,981.88
2019-04-04T07:13:06.283Z,981.88
2019-04-04T07:13:53.821Z,981.87
2019-04-04T07:14:53.824Z,981.87
2019-04-04T07:16:06.321Z,981.84
2019-04-04T07:16:53.829Z,981.83
2019-04-04T07:17:53.795Z,981.79
2019-04-04T07:18:53.789Z,981.81
2019-04-04T07:19:53.782Z,981.85
2019-04-04T07:20:53.776Z,981.81
2019-04-04T07:21:53.776Z,981.83
2019-04-04T07:22:55.600Z,981.81
2019-04-04T07:23:53.757Z,981.82
2019-04-04T07:24:53.749Z,981.87
2019-04-04T07:25:53.742Z,981.87
2019-04-04T07:26:53.731Z,981.87
2019-04-04T07:27:53.725Z,981.91
2019-04-04T07:28:54.091Z,981.91
2019-04-04T07:29:56.518Z,981.86
2019-04-04T07:30:54.739Z,981.83
2019-04-04T07:31:53.697Z,981.80
2019-04-04T07:32:53.690Z,981.81
2019-04-04T07:33:53.685Z,981.77
2019-04-04T07:34:53.678Z,981.77
2019-04-04T07:35:53.672Z,981.76
2019-04-04T07:36:53.666Z,981.69
2019-04-04T07:37:57.297Z,981.70
2019-04-04T07:38:53.650Z,981.72
2019-04-04T07:39:53.647Z,981.70
2019-04-04T07:40:53.641Z,981.75
2019-04-04T07:41:53.632Z,981.72
2019-04-04T07:42:53.622Z,981.82
2019-04-04T07:43:53.623Z,981.79
2019-04-04T07:44:54.708Z,981.77
2019-04-04T07:45:55.315Z,981.82
2019-04-04T07:46:53.604Z,981.77
2019-04-04T07:47:53.591Z,981.73
2019-04-04T07:48:53.582Z,981.65
2019-04-04T07:49:54.978Z,981.63
2019-04-04T07:50:53.573Z,981.65
2019-04-04T07:51:53.564Z,981.63
2019-04-04T07:52:53.555Z,981.63
2019-04-04T07:53:53.548Z,981.56
2019-04-04T07:54:53.541Z,981.61
2019-04-04T07:55:53.531Z,981.68
2019-04-04T07:56:53.527Z,981.66
2019-04-04T07:57:53.519Z,981.66
2019-04-04T07:58:53.523Z,981.64
2019-04-04T07:59:53.502Z,981.67
2019-04-04T08:00:53.500Z,981.71
2019-04-04T08:01:53.522Z,981.76
2019-04-04T08:02:53.480Z,981.83
2019-04-04T08:03:53.473Z,981.81
2019-04-04T08:04:53.472Z,981.77
2019-04-04T08:05:53.461Z,981.75
2019-04-04T08:06:53.456Z,981.71
2019-04-04T08:07:53.449Z,981.71
2019-04-04T08:08:53.437Z,981.69
2019-04-04T08:09:53.434Z,981.69
2019-04-04T08:10:53.426Z,981.72
2019-04-04T08:11:53.419Z,981.70
2019-04-04T08:12:53.410Z,981.67
2019-04-04T08:13:53.412Z,981.63
2019-04-04T08:14:53.397Z,981.69
2019-04-04T08:15:53.392Z,981.70
2019-04-04T08:16:53.385Z,981.73
2019-04-04T08:17:53.377Z,981.68
2019-04-04T08:18:53.368Z,981.74
2019-04-04T08:19:59.642Z,981.75
2019-04-04T08:20:53.354Z,981.68
2019-04-04T08:21:53.354Z,981.69
2019-04-04T08:22:53.342Z,981.70
2019-04-04T08:23:53.348Z,981.69
2019-04-04T08:24:53.327Z,981.71
2019-04-04T08:25:53.319Z,981.68
2019-04-04T08:26:53.313Z,981.62
2019-04-04T08:27:53.316Z,981.64
2019-04-04T08:28:53.300Z,981.64
2019-04-04T08:29:53.297Z,981.62
2019-04-04T08:30:53.289Z,981.63
2019-04-04T08:31:53.280Z,981.60
2019-04-04T08:32:53.279Z,981.56
2019-04-04T08:33:53.266Z,981.57
2019-04-04T08:34:53.260Z,981.61
2019-04-04T08:36:05.109Z,981.59
2019-04-04T08:36:53.249Z,981.62
2019-04-04T08:37:53.245Z,981.63
2019-04-04T08:38:53.235Z,981.63
2019-04-04T08:39:53.230Z,981.60
2019-04-04T08:40:53.221Z,981.62
2019-04-04T08:41:53.278Z,981.63
2019-04-04T08:42:53.213Z,981.58
2019-04-04T08:43:53.203Z,981.56
2019-04-04T08:44:53.229Z,981.55
2019-04-04T08:45:53.191Z,981.53
2019-04-04T08:46:55.522Z,981.47
2019-04-04T08:47:53.182Z,981.53
2019-04-04T08:48:53.172Z,981.50
2019-04-04T08:49:53.163Z,981.53
2019-04-04T08:50:53.159Z,981.54
2019-04-04T08:51:53.154Z,981.52
2019-04-04T08:52:53.145Z,981.55
2019-04-04T08:53:53.138Z,981.54
2019-04-04T08:54:53.138Z,981.45
2019-04-04T08:55:53.130Z,981.41
2019-04-04T08:56:53.119Z,981.38
2019-04-04T08:57:53.121Z,981.34
2019-04-04T08:58:53.106Z,981.31
2019-04-04T08:59:53.106Z,981.34
2019-04-04T09:00:53.096Z,981.34
2019-04-04T09:01:53.088Z,981.36
2019-04-04T09:02:53.083Z,981.32
2019-04-04T09:03:53.077Z,981.29
2019-04-04T09:04:53.071Z,981.26
2019-04-04T09:05:53.064Z,981.22
2019-04-04T09:06:53.057Z,981.18
2019-04-04T09:07:53.059Z,981.27
2019-04-04T09:08:53.045Z,981.34
2019-04-04T09:09:53.124Z,981.48
2019-04-04T09:10:53.035Z,981.55
2019-04-04T09:11:53.029Z,981.56
2019-04-04T09:12:53.025Z,981.61
2019-04-04T09:13:53.016Z,981.66
2019-04-04T09:14:53.011Z,981.67
2019-04-04T09:15:53.006Z,981.66
2019-04-04T09:16:53.000Z,981.68
2019-04-04T09:17:52.991Z,981.66
2019-04-04T09:18:52.993Z,981.64
2019-04-04T09:19:52.982Z,981.59
2019-04-04T09:20:52.975Z,981.59
2019-04-04T09:21:52.974Z,981.57
2019-04-04T09:22:52.963Z,981.49
2019-04-04T09:23:52.959Z,981.53
2019-04-04T09:24:52.958Z,981.50
2019-04-04T09:26:05.056Z,981.52
2019-04-04T09:26:52.941Z,981.57
2019-04-04T09:27:52.936Z,981.52
2019-04-04T09:28:52.936Z,981.53
2019-04-04T09:29:52.924Z,981.48
2019-04-04T09:30:52.933Z,981.46
2019-04-04T09:31:52.916Z,981.47
2019-04-04T09:32:52.928Z,981.41
2019-04-04T09:33:52.908Z,981.40
2019-04-04T09:34:52.900Z,981.37
2019-04-04T09:35:52.894Z,981.37
2019-04-04T09:36:52.893Z,981.37
2019-04-04T09:37:52.885Z,981.37
2019-04-04T09:38:52.881Z,981.36
2019-04-04T09:39:52.874Z,981.36
2019-04-04T09:40:52.879Z,981.38
2019-04-04T09:41:52.863Z,981.45
2019-04-04T09:42:52.863Z,981.48
2019-04-04T09:43:52.854Z,981.53
2019-04-04T09:44:52.853Z,981.51
2019-04-04T09:45:52.845Z,981.51
2019-04-04T09:47:04.822Z,981.53
2019-04-04T09:47:52.903Z,981.54
2019-04-04T09:48:52.835Z,981.52
2019-04-04T09:49:52.844Z,981.56
2019-04-04T09:50:52.833Z,981.58
2019-04-04T09:51:52.818Z,981.59
2019-04-04T09:52:52.816Z,981.59
2019-04-04T09:53:53.626Z,981.56
2019-04-04T09:54:52.809Z,981.53
2019-04-04T09:55:52.827Z,981.45
2019-04-04T09:56:52.797Z,981.48
2019-04-04T09:57:52.818Z,981.45
2019-04-04T09:58:54.861Z,981.43
2019-04-04T09:59:52.802Z,981.45
2019-04-04T10:00:52.786Z,981.46
2019-04-04T10:01:52.778Z,981.43
2019-04-04T10:02:52.777Z,981.45
2019-04-04T10:03:52.771Z,981.41
2019-04-04T10:04:52.773Z,981.32
2019-04-04T10:05:52.763Z,981.33
2019-04-04T10:06:52.762Z,981.28
2019-04-04T10:07:52.761Z,981.29
2019-04-04T10:08:53.220Z,981.25
2019-04-04T10:09:52.753Z,981.22
2019-04-04T10:10:52.743Z,981.25
2019-04-04T10:11:52.740Z,981.27
2019-04-04T10:12:52.736Z,981.28
2019-04-04T10:13:52.747Z,981.26
2019-04-04T10:14:52.888Z,981.28
2019-04-04T10:15:52.722Z,981.23
2019-04-04T10:16:52.805Z,981.20
2019-04-04T10:17:52.717Z,981.21
2019-04-04T10:18:52.714Z,981.14
2019-04-04T10:19:52.742Z,981.13
2019-04-04T10:20:52.722Z,981.11
2019-04-04T10:21:52.694Z,981.09
2019-04-04T10:22:52.695Z,981.09
2019-04-04T10:23:52.706Z,981.07
2019-04-04T10:24:52.682Z,981.08
2019-04-04T10:25:52.676Z,981.07
2019-04-04T10:26:52.669Z,981.06
2019-04-04T10:27:52.682Z,981.04
2019-04-04T10:28:52.661Z,981.03
2019-04-04T10:29:52.667Z,981.02
2019-04-04T10:30:52.651Z,981.02
2019-04-04T10:31:52.645Z,980.99
2019-04-04T10:32:52.644Z,980.99
2019-04-04T10:33:52.637Z,981.00
2019-04-04T10:34:52.674Z,980.93
2019-04-04T10:35:52.632Z,980.96
2019-04-04T10:36:52.622Z,980.98
2019-04-04T10:37:52.617Z,980.97
2019-04-04T10:38:52.615Z,980.99
2019-04-04T10:39:52.606Z,980.99
2019-04-04T10:40:52.602Z,981.00
2019-04-04T10:41:52.596Z,981.01
2019-04-04T10:42:52.594Z,981.04
2019-04-04T10:43:52.592Z,981.03
2019-04-04T10:44:52.876Z,981.07
2019-04-04T10:45:52.578Z,981.05
2019-04-04T10:46:52.572Z,981.07
2019-04-04T10:47:52.570Z,981.01
2019-04-04T10:48:52.561Z,981.06
2019-04-04T10:49:52.582Z,981.07
2019-04-04T10:50:52.551Z,981.06
2019-04-04T10:51:52.553Z,981.02
2019-04-04T10:52:52.541Z,980.97
2019-04-04T10:53:52.546Z,980.98
2019-04-04T10:54:52.531Z,981.00
2019-04-04T10:55:52.546Z,981.04
2019-04-04T10:56:52.521Z,981.04
2019-04-04T10:57:52.519Z,981.10
2019-04-04T10:58:52.511Z,981.13
2019-04-04T10:59:54.641Z,981.09
2019-04-04T11:00:52.507Z,981.10
2019-04-04T11:01:52.499Z,981.15
2019-04-04T11:02:52.504Z,981.14
2019-04-04T11:03:52.489Z,981.17
2019-04-04T11:04:52.490Z,981.12
2019-04-04T11:05:52.480Z,981.12
2019-04-04T11:06:52.481Z,981.11
2019-04-04T11:07:52.475Z,981.13
2019-04-04T11:08:52.467Z,981.15
2019-04-04T11:09:52.470Z,981.12
2019-04-04T11:10:52.469Z,981.03
2019-04-04T11:11:52.460Z,981.04
2019-04-04T11:12:52.491Z,981.11
2019-04-04T11:13:52.444Z,981.09
2019-04-04T11:14:52.440Z,981.14
2019-04-04T11:15:52.438Z,981.08
2019-04-04T11:16:52.433Z,981.11
2019-04-04T11:17:52.430Z,981.14
2019-04-04T11:18:52.426Z,981.12
2019-04-04T11:19:52.418Z,981.08
2019-04-04T11:20:52.432Z,981.11
2019-04-04T11:21:52.443Z,981.10
2019-04-04T11:22:52.589Z,981.10
2019-04-04T11:23:52.399Z,981.08
2019-04-04T11:24:52.398Z,981.12
2019-04-04T11:25:52.390Z,981.03
2019-04-04T11:26:52.392Z,981.04
2019-04-04T11:27:52.386Z,981.03
2019-04-04T11:28:52.395Z,980.90
2019-04-04T11:29:52.375Z,980.90
2019-04-04T11:30:52.372Z,980.97
2019-04-04T11:31:52.500Z,980.91
2019-04-04T11:32:52.361Z,980.87
2019-04-04T11:33:52.356Z,980.88
2019-04-04T11:34:53.439Z,980.89
2019-04-04T11:35:52.378Z,980.90
2019-04-04T11:36:52.864Z,980.84
2019-04-04T11:37:52.337Z,980.80
2019-04-04T11:38:52.347Z,980.81
2019-04-04T11:39:54.919Z,980.82
2019-04-04T11:40:52.335Z,980.78
2019-04-04T11:41:52.320Z,980.80
2019-04-04T11:42:52.316Z,980.77
2019-04-04T11:43:52.312Z,980.72
2019-04-04T11:44:52.307Z,980.71
2019-04-04T11:45:52.301Z,980.74
2019-04-04T11:46:52.675Z,980.75
2019-04-04T11:47:52.313Z,980.72
2019-04-04T11:48:52.287Z,980.67
2019-04-04T11:49:52.288Z,980.63
2019-04-04T11:50:52.280Z,980.65
2019-04-04T11:51:52.283Z,980.68
2019-04-04T11:52:52.273Z,980.71
2019-04-04T11:53:52.268Z,980.69
2019-04-04T11:54:52.263Z,980.72
2019-04-04T11:55:52.257Z,980.72
2019-04-04T11:56:52.253Z,980.70
2019-04-04T11:57:52.309Z,980.75
2019-04-04T11:58:52.243Z,980.75
2019-04-04T11:59:52.240Z,980.74
2019-04-04T12:00:52.235Z,980.73
2019-04-04T12:01:52.233Z,980.76
2019-04-04T12:02:52.225Z,980.74
2019-04-04T12:03:52.229Z,980.76
2019-04-04T12:04:52.266Z,980.72
2019-04-04T12:05:52.214Z,980.76
2019-04-04T12:06:52.208Z,980.78
2019-04-04T12:07:52.204Z,980.76
2019-04-04T12:08:52.204Z,980.79
2019-04-04T12:09:52.198Z,980.81
2019-04-04T12:10:52.197Z,980.79
2019-04-04T12:11:52.188Z,980.79
2019-04-04T12:12:52.239Z,980.84
2019-04-04T12:13:52.181Z,980.79
2019-04-04T12:14:52.177Z,980.77
2019-04-04T12:15:52.227Z,980.80
2019-04-04T12:16:52.288Z,980.73
2019-04-04T12:17:52.165Z,980.79
2019-04-04T12:18:52.160Z,980.79
2019-04-04T12:19:52.157Z,980.74
2019-04-04T12:20:52.149Z,980.69
2019-04-04T12:21:52.145Z,980.69
2019-04-04T12:22:52.142Z,980.70
2019-04-04T12:23:52.138Z,980.66
2019-04-04T12:24:52.143Z,980.68
2019-04-04T12:25:52.129Z,980.65
2019-04-04T12:26:52.129Z,980.64
2019-04-04T12:27:52.126Z,980.66
2019-04-04T12:28:52.117Z,980.67